ěÝzenÝ letovÚho provozu ╚eskÚ republiky
Letiste: LKCV Aktualizace: 23.11.2020 18:27:24  UTC
 METAR LKCV 23.11. 18:30 ...
METAR LKCV 231830Z 26006KT CAVOK 03/00 Q1029 NOSIG RMK BLU BLU=
 TAF LKCV 23.11. 17:00 ...
TAF LKCV 231700Z 2318/2418 25006KT CAVOK      BECMG 2321/2323 27004KT 4000 BR SCT006      TEMPO 2323/2410 0500 FZFG VV001      BECMG 2410/2414 14004KT CAVOK      BECMG 2416/2418 15004KT 2000 BR BKN005=